createdAt,value
2022-10-22T00:00:44.563Z,7.03
2022-10-22T00:03:12.479Z,6.53
2022-10-22T00:05:40.348Z,7.05
2022-10-22T00:08:07.929Z,4.53
2022-10-22T00:10:38.094Z,6.85
2022-10-22T00:13:05.716Z,6.55
2022-10-22T00:15:33.668Z,5.93
2022-10-22T00:18:01.150Z,6.18
2022-10-22T00:20:28.677Z,6.00
2022-10-22T00:22:56.140Z,5.63
2022-10-22T00:25:23.653Z,6.65
2022-10-22T00:27:51.338Z,8.88
2022-10-22T00:30:19.316Z,5.72
2022-10-22T00:32:46.917Z,6.47
2022-10-22T00:35:14.656Z,7.32
2022-10-22T00:37:42.073Z,6.43
2022-10-22T00:40:10.462Z,6.20
2022-10-22T00:42:38.362Z,5.40
2022-10-22T00:45:11.773Z,6.37
2022-10-22T00:47:43.427Z,7.43
2022-10-22T00:50:27.139Z,5.30
2022-10-22T00:52:56.362Z,7.05
2022-10-22T00:55:25.697Z,5.72
2022-10-22T00:57:55.768Z,6.38
2022-10-22T01:00:24.157Z,5.85
2022-10-22T01:02:53.572Z,5.97
2022-10-22T01:05:21.728Z,6.20
2022-10-22T01:07:52.158Z,6.45
2022-10-22T01:10:31.587Z,5.30
2022-10-22T01:13:22.113Z,5.43
2022-10-22T01:16:04.542Z,5.38
2022-10-22T01:18:41.744Z,6.22
2022-10-22T01:21:19.026Z,6.63
2022-10-22T01:24:08.102Z,7.82
2022-10-22T01:27:12.584Z,6.10
2022-10-22T01:29:40.264Z,5.97
2022-10-22T01:32:22.511Z,6.72
2022-10-22T01:35:00.311Z,7.40
2022-10-22T01:37:32.953Z,5.57
2022-10-22T01:40:01.637Z,6.45
2022-10-22T01:42:29.331Z,9.93
2022-10-22T01:44:56.851Z,6.45
2022-10-22T01:48:01.057Z,6.80
2022-10-22T01:50:28.502Z,9.90
2022-10-22T01:53:12.009Z,6.72
2022-10-22T01:56:06.702Z,5.30
2022-10-22T01:58:36.980Z,5.43
2022-10-22T02:01:26.153Z,6.00
2022-10-22T02:04:20.415Z,7.25
2022-10-22T02:06:52.670Z,6.30
2022-10-22T02:09:24.267Z,5.82
2022-10-22T02:11:52.787Z,7.18
2022-10-22T02:14:21.745Z,5.32
2022-10-22T02:16:50.824Z,7.28
2022-10-22T02:21:58.200Z,5.03
2022-10-22T02:24:26.023Z,5.00
2022-10-22T02:27:19.888Z,6.32
2022-10-22T02:29:49.125Z,5.15
2022-10-22T02:32:21.632Z,5.65
2022-10-22T02:34:51.156Z,7.55
2022-10-22T02:37:19.230Z,6.97
2022-10-22T02:39:47.163Z,4.90
2022-10-22T02:42:15.332Z,5.38
2022-10-22T02:44:43.924Z,6.57
2022-10-22T02:47:11.364Z,6.68
2022-10-22T02:49:38.779Z,7.07
2022-10-22T02:52:06.271Z,6.80
2022-10-22T02:54:34.106Z,10.65
2022-10-22T02:57:01.709Z,8.93
2022-10-22T02:59:33.336Z,6.97
2022-10-22T03:02:01.022Z,9.40
2022-10-22T03:04:28.649Z,9.70
2022-10-22T03:06:56.598Z,9.75
2022-10-22T03:09:24.980Z,8.52
2022-10-22T03:11:52.764Z,6.82
2022-10-22T03:14:20.515Z,6.57
2022-10-22T03:16:48.150Z,5.55
2022-10-22T03:19:15.860Z,8.20
2022-10-22T03:21:52.616Z,7.15
2022-10-22T03:24:26.125Z,6.05
2022-10-22T03:26:53.632Z,7.95
2022-10-22T03:29:23.866Z,6.97
2022-10-22T03:31:52.348Z,7.75
2022-10-22T03:34:20.458Z,5.72
2022-10-22T03:36:49.552Z,4.40
2022-10-22T03:39:19.377Z,8.15
2022-10-22T03:41:48.541Z,7.18
2022-10-22T03:44:18.265Z,6.07
2022-10-22T03:46:45.706Z,6.45
2022-10-22T03:49:13.159Z,6.47
2022-10-22T03:51:40.746Z,6.80
2022-10-22T03:54:08.280Z,7.28
2022-10-22T03:56:35.763Z,7.20
2022-10-22T03:59:04.281Z,5.40
2022-10-22T04:01:31.877Z,6.82
2022-10-22T04:03:59.437Z,7.75
2022-10-22T04:06:27.090Z,5.78
2022-10-22T04:08:54.808Z,7.75
2022-10-22T04:11:22.889Z,6.35
2022-10-22T04:13:50.516Z,7.22
2022-10-22T04:16:20.756Z,6.82
2022-10-22T04:18:49.703Z,6.80
2022-10-22T04:23:47.715Z,7.15
2022-10-22T04:26:16.837Z,7.35
2022-10-22T04:28:45.711Z,6.43
2022-10-22T04:31:19.051Z,8.70
2022-10-22T04:33:47.304Z,7.13
2022-10-22T04:36:18.032Z,7.55
2022-10-22T04:38:47.719Z,8.35
2022-10-22T04:41:17.785Z,6.35
2022-10-22T04:43:46.450Z,7.95
2022-10-22T04:46:15.927Z,7.68
2022-10-22T04:48:44.988Z,9.38
2022-10-22T04:51:15.732Z,9.73
2022-10-22T04:53:44.084Z,7.28
2022-10-22T04:56:21.945Z,6.80
2022-10-22T04:58:55.503Z,8.00
2022-10-22T05:01:26.072Z,8.15
2022-10-22T05:03:56.010Z,7.18
2022-10-22T05:06:24.493Z,6.70
2022-10-22T05:08:57.807Z,7.22
2022-10-22T05:11:28.445Z,7.93
2022-10-22T05:14:00.211Z,9.20
2022-10-22T05:16:29.818Z,9.32
2022-10-22T05:18:59.549Z,8.13
2022-10-22T05:21:27.855Z,7.35
2022-10-22T05:23:59.981Z,5.82
2022-10-22T05:26:28.804Z,7.88
2022-10-22T05:28:56.829Z,6.68
2022-10-22T05:31:24.723Z,7.25
2022-10-22T05:33:52.435Z,6.53
2022-10-22T05:36:21.982Z,7.38
2022-10-22T05:38:50.356Z,9.73
2022-10-22T05:41:21.163Z,6.47
2022-10-22T05:43:49.394Z,6.45
2022-10-22T05:46:23.057Z,7.78
2022-10-22T05:48:55.923Z,6.28
2022-10-22T05:51:24.535Z,7.78
2022-10-22T05:53:54.617Z,8.13
2022-10-22T05:56:22.900Z,7.57
2022-10-22T05:58:51.276Z,5.93
2022-10-22T06:01:24.506Z,5.10
2022-10-22T06:04:00.780Z,7.95
2022-10-22T06:06:44.193Z,8.13
2022-10-22T06:12:13.789Z,6.97
2022-10-22T06:14:41.607Z,7.32
2022-10-22T06:17:09.698Z,7.90
2022-10-22T06:19:37.518Z,6.07
2022-10-22T06:22:05.465Z,7.43
2022-10-22T06:24:32.973Z,8.25
2022-10-22T06:27:00.525Z,8.10
2022-10-22T06:29:28.248Z,7.32
2022-10-22T06:31:55.758Z,7.35
2022-10-22T06:34:23.406Z,8.02
2022-10-22T06:36:51.756Z,7.25
2022-10-22T06:39:19.456Z,6.25
2022-10-22T06:41:47.144Z,5.95
2022-10-22T06:44:16.733Z,7.70
2022-10-22T06:46:44.703Z,7.28
2022-10-22T06:49:14.624Z,7.82
2022-10-22T06:51:42.242Z,8.00
2022-10-22T06:54:10.435Z,8.23
2022-10-22T06:56:37.925Z,8.93
2022-10-22T06:59:05.370Z,7.55
2022-10-22T07:01:34.843Z,7.60
2022-10-22T07:04:03.562Z,7.60
2022-10-22T07:06:31.224Z,7.85
2022-10-22T07:09:00.101Z,6.45
2022-10-22T07:11:40.844Z,5.65
2022-10-22T07:14:09.057Z,6.82
2022-10-22T07:16:36.630Z,5.53
2022-10-22T07:19:04.964Z,8.20
2022-10-22T07:21:32.536Z,7.22
2022-10-22T07:24:00.336Z,7.65
2022-10-22T07:26:30.945Z,6.05
2022-10-22T07:29:01.882Z,6.15
2022-10-22T07:31:29.676Z,7.90
2022-10-22T07:33:57.864Z,7.00
2022-10-22T07:36:26.009Z,5.75
2022-10-22T07:38:57.197Z,7.68
2022-10-22T07:41:26.383Z,6.47
2022-10-22T07:43:54.645Z,9.02
2022-10-22T07:46:23.201Z,6.33
2022-10-22T07:48:51.265Z,10.43
2022-10-22T07:51:18.944Z,23.67
2022-10-22T07:53:46.466Z,15.63
2022-10-22T07:56:14.382Z,16.17
2022-10-22T07:58:42.210Z,10.35
2022-10-22T08:01:10.030Z,13.00
2022-10-22T08:03:37.689Z,24.38
2022-10-22T08:06:05.845Z,19.30
2022-10-22T08:08:34.826Z,16.13
2022-10-22T08:11:02.483Z,17.80
2022-10-22T08:13:30.783Z,11.55
2022-10-22T08:16:00.153Z,9.40
2022-10-22T08:18:27.959Z,17.15
2022-10-22T08:20:56.114Z,18.85
2022-10-22T08:23:26.089Z,18.52
2022-10-22T08:25:57.762Z,10.63
2022-10-22T08:28:26.118Z,6.75
2022-10-22T08:30:53.618Z,5.68
2022-10-22T08:33:21.264Z,6.18
2022-10-22T08:35:49.919Z,6.10
2022-10-22T08:38:18.478Z,5.63
2022-10-22T08:40:49.888Z,7.63
2022-10-22T08:43:29.207Z,7.00
2022-10-22T08:46:11.691Z,5.25
2022-10-22T08:48:48.144Z,5.47
2022-10-22T08:51:19.249Z,4.70
2022-10-22T08:54:04.834Z,6.72
2022-10-22T08:56:34.906Z,7.07
2022-10-22T08:59:21.096Z,6.93
2022-10-22T09:01:53.096Z,5.72
2022-10-22T09:04:30.366Z,5.88
2022-10-22T09:07:00.184Z,5.05
2022-10-22T09:09:33.180Z,7.57
2022-10-22T09:12:02.534Z,5.18
2022-10-22T09:14:30.362Z,5.28
2022-10-22T09:17:29.390Z,3.80
2022-10-22T09:20:23.858Z,4.55
2022-10-22T09:23:19.731Z,6.28
2022-10-22T09:25:49.239Z,5.50
2022-10-22T09:28:17.534Z,3.40
2022-10-22T09:30:45.867Z,8.10
2022-10-22T09:33:20.158Z,4.90
2022-10-22T09:35:57.688Z,5.75
2022-10-22T09:38:28.900Z,6.85
2022-10-22T09:41:00.148Z,4.93
2022-10-22T09:43:27.917Z,5.15
2022-10-22T09:45:59.157Z,6.47
2022-10-22T09:48:34.576Z,5.50
2022-10-22T09:51:06.741Z,5.07
2022-10-22T09:53:41.959Z,5.78
2022-10-22T09:56:20.402Z,6.32
2022-10-22T09:58:51.308Z,4.82
2022-10-22T10:01:26.238Z,5.15
2022-10-22T10:03:53.963Z,4.80
2022-10-22T10:06:23.453Z,4.75
2022-10-22T10:08:51.298Z,6.72
2022-10-22T10:11:45.620Z,4.53
2022-10-22T10:14:35.492Z,5.85
2022-10-22T10:17:31.952Z,6.45
2022-10-22T10:20:17.353Z,6.97
2022-10-22T10:22:45.009Z,5.53
2022-10-22T10:25:39.382Z,9.60
2022-10-22T10:28:19.432Z,5.80
2022-10-22T10:31:10.996Z,5.50
2022-10-22T10:33:45.055Z,4.65
2022-10-22T10:36:27.882Z,4.80
2022-10-22T10:38:58.350Z,7.20
2022-10-22T10:41:42.267Z,6.90
2022-10-22T10:44:31.198Z,4.80
2022-10-22T10:47:26.128Z,4.78
2022-10-22T10:50:01.156Z,4.45
2022-10-22T10:52:34.372Z,4.05
2022-10-22T10:55:20.366Z,4.10
2022-10-22T10:58:03.322Z,5.32
2022-10-22T11:00:40.996Z,3.83
2022-10-22T11:03:36.598Z,7.18
2022-10-22T11:06:09.770Z,5.68
2022-10-22T11:08:46.284Z,5.78
2022-10-22T11:11:32.861Z,7.63
2022-10-22T11:14:10.599Z,5.05
2022-10-22T11:17:16.913Z,3.75
2022-10-22T11:19:57.868Z,4.95
2022-10-22T11:22:50.514Z,6.05
2022-10-22T11:25:33.346Z,6.47
2022-10-22T11:28:13.211Z,9.15
2022-10-22T11:30:45.322Z,5.88
2022-10-22T11:33:18.379Z,6.88
2022-10-22T11:35:47.184Z,6.00
2022-10-22T11:38:17.859Z,6.70
2022-10-22T11:40:50.333Z,5.35
2022-10-22T11:43:30.196Z,5.78
2022-10-22T11:46:03.776Z,7.50
2022-10-22T11:48:37.832Z,7.63
2022-10-22T11:51:30.003Z,5.95
2022-10-22T11:53:58.429Z,5.50
2022-10-22T11:56:27.907Z,5.95
2022-10-22T11:58:55.807Z,7.85
2022-10-22T12:01:30.053Z,8.93
2022-10-22T12:03:57.871Z,10.75
2022-10-22T12:06:29.393Z,7.68
2022-10-22T12:09:01.652Z,6.03
2022-10-22T12:11:37.195Z,5.25
2022-10-22T12:14:24.392Z,6.90
2022-10-22T12:16:57.723Z,5.03
2022-10-22T12:19:46.780Z,6.97
2022-10-22T12:22:17.907Z,5.90
2022-10-22T12:24:52.542Z,6.97
2022-10-22T12:27:23.049Z,6.00
2022-10-22T12:29:59.082Z,5.63
2022-10-22T12:32:41.460Z,4.93
2022-10-22T12:35:16.883Z,7.18
2022-10-22T12:37:44.658Z,6.28
2022-10-22T12:40:23.362Z,5.47
2022-10-22T12:42:56.687Z,5.82
2022-10-22T12:45:28.332Z,3.88
2022-10-22T12:48:01.099Z,5.90
2022-10-22T12:50:37.574Z,4.75
2022-10-22T12:53:23.088Z,6.13
2022-10-22T12:55:52.992Z,4.18
2022-10-22T12:58:26.537Z,7.70
2022-10-22T13:01:00.880Z,6.35
2022-10-22T13:03:30.426Z,4.63
2022-10-22T13:06:14.213Z,4.78
2022-10-22T13:08:41.943Z,6.07
2022-10-22T13:11:11.529Z,6.00
2022-10-22T13:13:38.926Z,5.85
2022-10-22T13:16:24.564Z,6.15
2022-10-22T13:18:53.221Z,6.38
2022-10-22T13:21:28.044Z,5.93
2022-10-22T13:24:03.550Z,6.07
2022-10-22T13:26:35.001Z,5.28
2022-10-22T13:29:10.582Z,4.25
2022-10-22T13:31:47.129Z,5.65
2022-10-22T13:34:19.516Z,5.47
2022-10-22T13:36:48.109Z,5.78
2022-10-22T13:39:20.916Z,6.72
2022-10-22T13:41:52.170Z,5.22
2022-10-22T13:44:20.193Z,5.22
2022-10-22T13:46:48.883Z,4.90
2022-10-22T13:49:19.761Z,4.47
2022-10-22T13:51:47.707Z,4.55
2022-10-22T13:54:22.465Z,5.45
2022-10-22T13:56:50.203Z,7.13
2022-10-22T13:59:21.190Z,5.50
2022-10-22T14:01:52.243Z,5.47
2022-10-22T14:04:19.811Z,6.35
2022-10-22T14:06:47.325Z,7.63
2022-10-22T14:09:16.209Z,6.57
2022-10-22T14:11:43.898Z,7.60
2022-10-22T14:14:14.356Z,5.53
2022-10-22T14:16:42.162Z,5.65
2022-10-22T14:19:16.585Z,4.93
2022-10-22T14:21:44.447Z,5.38
2022-10-22T14:24:13.382Z,9.60
2022-10-22T14:26:41.552Z,6.10
2022-10-22T14:29:11.124Z,8.63
2022-10-22T14:34:15.756Z,5.22
2022-10-22T14:36:44.158Z,6.35
2022-10-22T14:39:13.264Z,4.75
2022-10-22T14:41:41.871Z,5.13
2022-10-22T14:44:12.900Z,15.32
2022-10-22T14:46:42.776Z,5.57
2022-10-22T14:49:10.487Z,5.57
2022-10-22T14:51:38.230Z,4.53
2022-10-22T14:54:05.710Z,10.85
2022-10-22T14:56:33.338Z,6.28
2022-10-22T14:59:01.206Z,7.93
2022-10-22T15:01:28.790Z,8.77
2022-10-22T15:03:56.362Z,9.27
2022-10-22T15:06:24.156Z,8.70
2022-10-22T15:08:52.176Z,8.10
2022-10-22T15:11:21.342Z,9.25
2022-10-22T15:13:48.960Z,9.25
2022-10-22T15:16:16.738Z,10.25
2022-10-22T15:18:44.936Z,5.10
2022-10-22T15:21:18.299Z,8.70
2022-10-22T15:23:46.094Z,8.27
2022-10-22T15:26:14.147Z,8.02
2022-10-22T15:28:42.562Z,9.82
2022-10-22T15:31:13.551Z,6.88
2022-10-22T15:33:42.714Z,14.68
2022-10-22T15:36:13.008Z,16.55
2022-10-22T15:38:40.731Z,14.60
2022-10-22T15:41:10.410Z,11.73
2022-10-22T15:43:38.133Z,11.43
2022-10-22T15:46:17.530Z,9.02
2022-10-22T15:48:45.841Z,11.23
2022-10-22T15:51:17.137Z,9.25
2022-10-22T15:53:51.531Z,12.52
2022-10-22T15:56:19.550Z,9.05
2022-10-22T15:58:47.888Z,9.50
2022-10-22T16:01:15.483Z,8.55
2022-10-22T16:03:43.207Z,8.93
2022-10-22T16:06:11.006Z,9.10
2022-10-22T16:08:38.857Z,9.52
2022-10-22T16:11:06.456Z,7.93
2022-10-22T16:13:36.068Z,8.52
2022-10-22T16:16:08.237Z,9.45
2022-10-22T16:18:35.974Z,8.38
2022-10-22T16:21:04.335Z,6.88
2022-10-22T16:23:31.830Z,10.25
2022-10-22T16:26:01.980Z,12.75
2022-10-22T16:28:29.830Z,13.07
2022-10-22T16:31:02.166Z,11.43
2022-10-22T16:33:39.163Z,11.50
2022-10-22T16:36:12.443Z,11.40
2022-10-22T16:38:40.426Z,13.75
2022-10-22T16:41:18.522Z,19.50
2022-10-22T16:43:48.571Z,26.30
2022-10-22T16:46:19.334Z,20.25
2022-10-22T16:48:48.883Z,15.93
2022-10-22T16:51:19.934Z,15.82
2022-10-22T16:53:47.968Z,13.73
2022-10-22T16:56:16.774Z,9.60
2022-10-22T16:58:49.786Z,12.10
2022-10-22T17:01:19.398Z,14.30
2022-10-22T17:03:47.218Z,13.18
2022-10-22T17:06:15.612Z,13.27
2022-10-22T17:08:43.702Z,14.40
2022-10-22T17:11:16.952Z,10.57
2022-10-22T17:13:46.901Z,13.02
2022-10-22T17:16:17.658Z,13.77
2022-10-22T17:21:20.573Z,16.23
2022-10-22T17:23:49.177Z,16.58
2022-10-22T17:26:20.913Z,15.60
2022-10-22T17:28:49.498Z,13.43
2022-10-22T17:31:19.339Z,18.33
2022-10-22T17:33:50.217Z,18.40
2022-10-22T17:36:19.075Z,16.98
2022-10-22T17:38:50.624Z,16.65
2022-10-22T17:41:20.922Z,15.55
2022-10-22T17:43:49.078Z,15.32
2022-10-22T17:46:21.147Z,14.48
2022-10-22T17:48:54.613Z,16.38
2022-10-22T17:51:25.142Z,18.10
2022-10-22T17:56:23.042Z,20.13
2022-10-22T17:58:51.714Z,18.45
2022-10-22T18:01:30.069Z,17.25
2022-10-22T18:04:07.885Z,15.75
2022-10-22T18:06:35.724Z,13.65
2022-10-22T18:09:06.226Z,15.23
2022-10-22T18:11:36.625Z,13.43
2022-10-22T18:14:05.179Z,16.42
2022-10-22T18:16:33.030Z,14.80
2022-10-22T18:19:01.385Z,12.65
2022-10-22T18:21:30.606Z,15.07
2022-10-22T18:24:02.161Z,12.20
2022-10-22T18:26:30.109Z,13.18
2022-10-22T18:28:58.163Z,12.90
2022-10-22T18:31:27.202Z,16.60
2022-10-22T18:33:55.628Z,15.75
2022-10-22T18:36:25.786Z,11.18
2022-10-22T18:38:56.066Z,14.13
2022-10-22T18:41:24.328Z,15.00
2022-10-22T18:43:53.989Z,11.55
2022-10-22T18:46:22.299Z,13.65
2022-10-22T18:48:53.233Z,11.35
2022-10-22T18:51:21.034Z,15.45
2022-10-22T18:54:05.471Z,13.73
2022-10-22T18:56:40.775Z,12.50
2022-10-22T18:59:24.192Z,13.95
2022-10-22T19:01:53.829Z,14.25
2022-10-22T19:04:22.154Z,13.65
2022-10-22T19:06:50.410Z,15.05
2022-10-22T19:09:18.491Z,12.05
2022-10-22T19:11:46.902Z,10.80
2022-10-22T19:14:15.081Z,11.63
2022-10-22T19:16:42.918Z,7.22
2022-10-22T19:19:14.809Z,10.73
2022-10-22T19:21:42.784Z,12.95
2022-10-22T19:24:11.561Z,9.05
2022-10-22T19:26:39.884Z,11.07
2022-10-22T19:29:10.966Z,13.17
2022-10-22T19:31:40.800Z,10.65
2022-10-22T19:34:09.864Z,10.82
2022-10-22T19:36:37.340Z,7.90
2022-10-22T19:39:06.342Z,7.70
2022-10-22T19:44:02.028Z,9.65
2022-10-22T19:46:33.133Z,8.82
2022-10-22T19:49:02.956Z,8.32
2022-10-22T19:51:33.931Z,7.82
2022-10-22T19:54:05.278Z,7.57
2022-10-22T19:56:34.908Z,13.05
2022-10-22T19:59:05.217Z,10.50
2022-10-22T20:01:32.946Z,8.98
2022-10-22T20:04:01.622Z,7.75
2022-10-22T20:06:30.330Z,8.98
2022-10-22T20:08:58.946Z,9.68
2022-10-22T20:11:29.220Z,7.95
2022-10-22T20:13:57.590Z,9.88
2022-10-22T20:16:29.698Z,9.02
2022-10-22T20:19:05.314Z,9.25
2022-10-22T20:21:34.952Z,7.65
2022-10-22T20:24:02.735Z,9.07
2022-10-22T20:26:31.749Z,9.23
2022-10-22T20:29:02.536Z,11.00
2022-10-22T20:31:30.793Z,7.30
2022-10-22T20:34:01.178Z,6.83
2022-10-22T20:36:31.114Z,8.02
2022-10-22T20:39:02.470Z,7.38
2022-10-22T20:41:30.518Z,6.93
2022-10-22T20:43:58.242Z,7.38
2022-10-22T20:46:34.251Z,7.88
2022-10-22T20:49:07.339Z,8.43
2022-10-22T20:51:36.244Z,7.18
2022-10-22T20:54:07.596Z,6.43
2022-10-22T20:56:40.232Z,6.45
2022-10-22T20:59:11.063Z,13.00
2022-10-22T21:01:44.660Z,7.60
2022-10-22T21:04:12.596Z,7.78
2022-10-22T21:06:41.806Z,5.03
2022-10-22T21:09:16.495Z,6.88
2022-10-22T21:11:44.209Z,7.07
2022-10-22T21:14:13.607Z,7.85
2022-10-22T21:16:45.749Z,8.57
2022-10-22T21:19:13.383Z,7.07
2022-10-22T21:21:41.281Z,6.63
2022-10-22T21:24:09.288Z,10.02
2022-10-22T21:26:38.759Z,7.75
2022-10-22T21:29:07.114Z,8.38
2022-10-22T21:31:35.183Z,5.90
2022-10-22T21:34:03.053Z,5.70
2022-10-22T21:36:30.487Z,7.97
2022-10-22T21:38:58.001Z,13.30
2022-10-22T21:41:25.502Z,7.35
2022-10-22T21:43:53.016Z,9.98
2022-10-22T21:46:23.171Z,7.63
2022-10-22T21:48:55.870Z,7.65
2022-10-22T21:51:24.269Z,8.57
2022-10-22T21:56:32.816Z,9.05
2022-10-22T21:59:01.888Z,9.10
2022-10-22T22:03:56.911Z,8.93
2022-10-22T22:06:29.524Z,6.93
2022-10-22T22:08:58.770Z,7.78
2022-10-22T22:11:27.796Z,7.25
2022-10-22T22:16:28.413Z,8.13
2022-10-22T22:18:58.507Z,6.88
2022-10-22T22:21:27.780Z,8.13
2022-10-22T22:23:55.622Z,8.55
2022-10-22T22:26:29.516Z,6.50
2022-10-22T22:29:00.911Z,7.53
2022-10-22T22:31:30.782Z,7.38
2022-10-22T22:34:05.103Z,9.10
2022-10-22T22:36:38.040Z,8.55
2022-10-22T22:39:08.356Z,8.50
2022-10-22T22:41:35.970Z,8.00
2022-10-22T22:44:03.847Z,9.75
2022-10-22T22:46:31.479Z,8.18
2022-10-22T22:48:59.032Z,8.02
2022-10-22T22:51:26.703Z,9.52
2022-10-22T22:53:54.200Z,8.48
2022-10-22T22:56:26.401Z,8.88
2022-10-22T22:58:54.672Z,9.25
2022-10-22T23:01:28.497Z,7.60
2022-10-22T23:03:58.895Z,8.93
2022-10-22T23:06:29.517Z,7.72
2022-10-22T23:08:57.809Z,9.23
2022-10-22T23:11:26.854Z,9.48
2022-10-22T23:16:29.303Z,9.35
2022-10-22T23:18:57.558Z,9.35
2022-10-22T23:21:28.281Z,8.82
2022-10-22T23:23:58.627Z,7.82
2022-10-22T23:26:29.928Z,8.40
2022-10-22T23:29:16.022Z,9.85
2022-10-22T23:31:44.197Z,8.85
2022-10-22T23:34:14.355Z,10.15
2022-10-22T23:36:42.062Z,11.75
2022-10-22T23:39:13.233Z,9.50
2022-10-22T23:41:41.316Z,8.60
2022-10-22T23:44:09.439Z,10.38
2022-10-22T23:46:40.461Z,8.20
2022-10-22T23:49:09.722Z,9.13
2022-10-22T23:51:38.788Z,9.30
2022-10-22T23:54:10.189Z,9.50
2022-10-22T23:56:38.122Z,9.43
2022-10-22T23:59:06.891Z,9.32
